»·PEaware :: N323DE KBUR-KLAS

N323DE :: KBUR-KLAS

FLIGHT INFORMATION

Flight Status: Arrived
Operator: Privately registered:
United States
More flights under this callsign
Pilot: John H. (10732)
Aircraft: Unknown
(LEG2)
More flights by this aircraft type
Origin: KBUR Bob Hope-Burbank
United States
Destination: KLAS McCarran Intl
United States
More flights between these airports :: More routes between these airports
Route: +VNY3 DAG CRESO4
File this flight plan on PilotEdge
Remarks: I-5
Altitude:
(Current/Filed)
18,000ft
Speed:
(Current/Filed)
250kts
Departed: 09-May-19 07:38 PM
Arrived: 09-May-19 08:35 PM
Distance/Time
Traveled:
193nm/0:57
Distance/Time
To Go:
Arrived

Flight Plot

Page will automatically refresh every two minutes.

Flight plan parsing failed; only flown route is shown


Map Options




Map Legend


Flown Route
Filed Route
Departure Airport
Arrival Airport
Navaid (VOR, NDB)
Fix

Horizontal Profiles

Position Reports

Time Latitude Longitude Heading Altitude Ground
Speed
09-May-19 19:28 34.195902 -118.359807 179 724ft 0kts
09-May-19 19:29 34.195902 -118.359807 179 724ft 0kts
09-May-19 19:30 34.195902 -118.359807 179 724ft 0kts
09-May-19 19:31 34.195902 -118.359807 179 724ft 0kts
09-May-19 19:32 34.195902 -118.359807 179 724ft 0kts
09-May-19 19:33 34.195902 -118.359807 179 724ft 0kts
09-May-19 19:34 34.195902 -118.359807 179 724ft 0kts
09-May-19 19:35 34.196836 -118.364361 275 724ft 21kts
09-May-19 19:36 34.197329 -118.369023 5 724ft 0kts
09-May-19 19:37 34.197823 -118.364499 88 728ft 103kts
09-May-19 19:38 34.189006 -118.312088 149 2542ft 190kts
09-May-19 19:39 34.145667 -118.339022 242 4577ft 182kts
09-May-19 19:40 34.167621 -118.384935 312 6556ft 162kts
09-May-19 19:41 34.204190 -118.412564 350 8550ft 159kts
09-May-19 19:42 34.251446 -118.422921 345 10599ft 189kts
09-May-19 19:43 34.305823 -118.438272 345 12624ft 210kts
09-May-19 19:44 34.371960 -118.453310 7 13005ft 271kts
09-May-19 19:45 34.425906 -118.390109 51 13132ft 279kts
09-May-19 19:46 34.470966 -118.320219 52 14901ft 255kts
09-May-19 19:47 34.513338 -118.252900 52 16689ft 248kts
09-May-19 19:48 34.558316 -118.180990 52 17027ft 285kts
09-May-19 19:49 34.607739 -118.101758 52 17007ft 302kts
09-May-19 19:50 34.634559 -118.007446 85 17011ft 307kts
09-May-19 19:51 34.648320 -117.904550 81 17009ft 309kts
09-May-19 19:52 34.659778 -117.803501 82 16996ft 294kts
09-May-19 19:53 34.678407 -117.708083 72 16994ft 288kts
09-May-19 19:54 34.702301 -117.614883 73 17000ft 294kts
09-May-19 19:55 34.727059 -117.517985 73 16998ft 303kts
09-May-19 19:56 34.752195 -117.419242 73 16999ft 308kts
09-May-19 19:57 34.777505 -117.319444 73 17012ft 310kts
09-May-19 19:58 34.802882 -117.218994 73 17004ft 310kts
09-May-19 19:59 34.828169 -117.118514 74 17004ft 310kts
09-May-19 20:00 34.853382 -117.017936 74 17028ft 310kts
09-May-19 20:01 34.878479 -116.917427 74 17038ft 310kts
09-May-19 20:02 34.903562 -116.816575 74 17041ft 311kts
09-May-19 20:03 34.928501 -116.715907 74 17040ft 311kts
09-May-19 20:04 34.953483 -116.614663 74 17047ft 311kts
09-May-19 20:05 34.989055 -116.518442 62 17035ft 313kts
09-May-19 20:06 35.030457 -116.425162 62 17036ft 313kts
09-May-19 20:07 35.071905 -116.331594 62 17035ft 313kts
09-May-19 20:08 35.113257 -116.238004 62 17031ft 313kts
09-May-19 20:09 35.154455 -116.144497 62 17029ft 313kts
09-May-19 20:10 35.196464 -116.048861 63 15965ft 318kts
09-May-19 20:11 35.237487 -115.955230 63 14467ft 308kts
09-May-19 20:12 35.273989 -115.871701 63 13095ft 301kts
09-May-19 20:13 35.314394 -115.783786 55 11603ft 296kts
09-May-19 20:14 35.369027 -115.709337 48 10168ft 288kts
09-May-19 20:15 35.419905 -115.641411 48 9984ft 258kts
09-May-19 20:16 35.470570 -115.573645 48 9986ft 274kts
09-May-19 20:17 35.522338 -115.504276 48 9986ft 276kts
09-May-19 20:18 35.574361 -115.434468 48 9994ft 278kts
09-May-19 20:19 35.626807 -115.363939 48 9997ft 281kts
09-May-19 20:20 35.679659 -115.292715 48 9994ft 281kts
09-May-19 20:21 35.732306 -115.221617 48 10009ft 282kts
09-May-19 20:22 35.784997 -115.150310 48 10008ft 269kts
09-May-19 20:23 35.832000 -115.086592 48 10008ft 240kts
09-May-19 20:24 35.886195 -115.061020 321 9479ft 232kts
09-May-19 20:25 35.927268 -115.116772 344 8837ft 213kts
09-May-19 20:26 35.981314 -115.101185 27 8152ft 203kts
09-May-19 20:27 36.037024 -115.110083 316 6061ft 222kts
09-May-19 20:28 36.032160 -115.166222 195 4129ft 197kts
09-May-19 20:29 35.994145 -115.183656 201 4043ft 120kts
09-May-19 20:30 35.984396 -115.206867 6 4018ft 109kts
09-May-19 20:31 36.014678 -115.198202 355 3742ft 112kts
09-May-19 20:32 36.044525 -115.187296 25 2964ft 111kts
09-May-19 20:33 36.071629 -115.172787 26 2269ft 103kts
09-May-19 20:34 36.084145 -115.165763 223 2118ft 6kts
09-May-19 20:35 36.083351 -115.167333 285 2118ft 9kts
09-May-19 20:36 36.080891 -115.170810 265 2118ft 7kts
09-May-19 20:37 36.080889 -115.170910 269 2118ft 0kts

Navigation Log

Ident Type
Flight plan parsing failed, navigation log unavailable